createdAt,value
2023-04-06T00:01:09.496Z,98578.41
2023-04-06T00:03:36.308Z,98571.09
2023-04-06T00:06:03.077Z,98565.41
2023-04-06T00:11:01.911Z,98580.06
2023-04-06T00:13:28.635Z,98571.50
2023-04-06T00:15:55.325Z,98563.38
2023-04-06T00:21:00.019Z,98566.56
2023-04-06T00:23:26.821Z,98563.19
2023-04-06T00:25:53.461Z,98565.06
2023-04-06T00:28:26.292Z,98565.94
2023-04-06T00:33:30.091Z,98557.34
2023-04-06T00:35:57.000Z,98557.44
2023-04-06T00:38:23.709Z,98560.28
2023-04-06T00:40:51.085Z,98557.56
2023-04-06T00:43:17.754Z,98552.03
2023-04-06T00:45:44.432Z,98557.84
2023-04-06T00:48:11.212Z,98555.84
2023-04-06T00:50:37.986Z,98559.22
2023-04-06T00:53:04.710Z,98553.69
2023-04-06T00:55:31.490Z,98553.66
2023-04-06T00:57:59.671Z,98556.91
2023-04-06T01:00:26.876Z,98552.75
2023-04-06T01:02:54.109Z,98552.75
2023-04-06T01:05:21.344Z,98546.72
2023-04-06T01:07:48.112Z,98545.97
2023-04-06T01:13:01.529Z,98554.22
2023-04-06T01:15:29.853Z,98538.47
2023-04-06T01:17:56.522Z,98537.34
2023-04-06T01:20:23.405Z,98531.63
2023-04-06T01:22:50.022Z,98533.44
2023-04-06T01:25:16.785Z,98535.41
2023-04-06T01:27:43.866Z,98537.81
2023-04-06T01:30:10.854Z,98535.41
2023-04-06T01:32:37.534Z,98536.56
2023-04-06T01:35:04.488Z,98524.88
2023-04-06T01:37:33.360Z,98529.34
2023-04-06T01:40:01.745Z,98531.94
2023-04-06T01:42:29.221Z,98524.97
2023-04-06T01:44:55.918Z,98522.84
2023-04-06T01:47:22.607Z,98520.31
2023-04-06T01:49:49.252Z,98523.09
2023-04-06T01:52:16.894Z,98519.75
2023-04-06T01:54:43.557Z,98522.91
2023-04-06T01:57:11.982Z,98518.03
2023-04-06T01:59:38.778Z,98522.75
2023-04-06T02:02:05.701Z,98515.78
2023-04-06T02:04:32.408Z,98517.66
2023-04-06T02:06:59.153Z,98515.91
2023-04-06T02:09:25.887Z,98518.31
2023-04-06T02:11:52.735Z,98517.25
2023-04-06T02:14:19.407Z,98520.63
2023-04-06T02:16:46.467Z,98514.66
2023-04-06T02:19:13.114Z,98517.09
2023-04-06T02:21:39.781Z,98514.09
2023-04-06T02:24:06.767Z,98515.03
2023-04-06T02:26:33.433Z,98515.94
2023-04-06T02:29:00.057Z,98514.72
2023-04-06T02:31:27.526Z,98511.72
2023-04-06T02:33:54.215Z,98507.88
2023-04-06T02:36:20.966Z,98514.28
2023-04-06T02:41:26.388Z,98506.88
2023-04-06T02:43:53.091Z,98506.53
2023-04-06T02:46:19.779Z,98507.47
2023-04-06T02:48:46.737Z,98502.00
2023-04-06T02:51:13.349Z,98503.59
2023-04-06T02:53:40.099Z,98501.03
2023-04-06T02:56:07.124Z,98497.72
2023-04-06T02:58:34.105Z,98501.09
2023-04-06T03:01:00.852Z,98496.50
2023-04-06T03:03:27.681Z,98492.22
2023-04-06T03:05:55.804Z,98496.44
2023-04-06T03:08:22.428Z,98492.94
2023-04-06T03:10:49.143Z,98494.38
2023-04-06T03:13:15.995Z,98485.81
2023-04-06T03:15:42.743Z,98492.28
2023-04-06T03:18:09.551Z,98489.66
2023-04-06T03:20:36.292Z,98490.88
2023-04-06T03:23:03.311Z,98492.88
2023-04-06T03:25:31.373Z,98494.28
2023-04-06T03:27:58.076Z,98493.69
2023-04-06T03:30:24.790Z,98492.88
2023-04-06T03:32:51.544Z,98497.19
2023-04-06T03:35:18.444Z,98503.75
2023-04-06T03:37:45.186Z,98499.88
2023-04-06T03:40:12.102Z,98503.06
2023-04-06T03:42:38.804Z,98503.53
2023-04-06T03:45:05.836Z,98501.84
2023-04-06T03:47:32.591Z,98506.63
2023-04-06T03:49:59.386Z,98499.06
2023-04-06T03:55:04.624Z,98504.69
2023-04-06T03:57:31.511Z,98513.59
2023-04-06T03:59:58.218Z,98511.38
2023-04-06T04:02:24.967Z,98518.19
2023-04-06T04:04:52.003Z,98519.75
2023-04-06T04:07:18.706Z,98517.34
2023-04-06T04:09:45.341Z,98519.47
2023-04-06T04:12:11.991Z,98518.19
2023-04-06T04:14:38.642Z,98524.75
2023-04-06T04:17:05.326Z,98527.19
2023-04-06T04:22:10.218Z,98524.13
2023-04-06T04:24:36.945Z,98528.16
2023-04-06T04:27:03.704Z,98526.56
2023-04-06T04:29:30.587Z,98529.34
2023-04-06T04:31:57.316Z,98523.75
2023-04-06T04:34:27.042Z,98522.63
2023-04-06T04:39:32.350Z,98528.38
2023-04-06T04:41:59.010Z,98526.56
2023-04-06T04:44:25.701Z,98532.16
2023-04-06T04:46:53.032Z,98527.38
2023-04-06T04:49:19.676Z,98527.94
2023-04-06T04:51:46.355Z,98530.94
2023-04-06T04:54:13.114Z,98526.69
2023-04-06T04:56:39.757Z,98536.63
2023-04-06T05:01:54.145Z,98528.16
2023-04-06T05:04:22.056Z,98531.34
2023-04-06T05:06:48.791Z,98533.34
2023-04-06T05:09:15.651Z,98533.84
2023-04-06T05:11:42.376Z,98536.53
2023-04-06T05:14:09.101Z,98531.75
2023-04-06T05:16:36.160Z,98537.91
2023-04-06T05:19:02.922Z,98535.72
2023-04-06T05:21:29.592Z,98545.97
2023-04-06T05:23:56.874Z,98542.91
2023-04-06T05:26:23.543Z,98552.47
2023-04-06T05:28:50.226Z,98552.47
2023-04-06T05:31:17.419Z,98557.06
2023-04-06T05:33:44.631Z,98555.53
2023-04-06T05:36:13.141Z,98562.81
2023-04-06T05:38:41.542Z,98564.81
2023-04-06T05:41:08.302Z,98571.59
2023-04-06T05:43:34.960Z,98560.94
2023-04-06T05:46:01.735Z,98566.91
2023-04-06T05:50:59.782Z,98558.53
2023-04-06T05:53:27.563Z,98564.94
2023-04-06T05:55:54.353Z,98563.63
2023-04-06T05:58:21.471Z,98566.78
2023-04-06T06:00:48.168Z,98569.97
2023-04-06T06:03:16.438Z,98568.00
2023-04-06T06:05:43.235Z,98568.59
2023-04-06T06:10:47.384Z,98571.97
2023-04-06T06:13:14.067Z,98575.44
2023-04-06T06:15:40.753Z,98574.13
2023-04-06T06:18:07.416Z,98574.38
2023-04-06T06:23:05.728Z,98574.47
2023-04-06T06:25:33.781Z,98575.25
2023-04-06T06:28:00.871Z,98575.31
2023-04-06T06:30:27.665Z,98577.53
2023-04-06T06:32:54.433Z,98572.78
2023-04-06T06:35:21.486Z,98571.09
2023-04-06T06:37:48.173Z,98578.13
2023-04-06T06:40:17.212Z,98579.28
2023-04-06T06:42:43.935Z,98577.47
2023-04-06T06:45:11.171Z,98575.84
2023-04-06T06:47:37.974Z,98571.16
2023-04-06T06:50:05.377Z,98574.38
2023-04-06T06:52:32.176Z,98577.25
2023-04-06T06:54:59.031Z,98571.56
2023-04-06T06:57:26.027Z,98577.44
2023-04-06T06:59:52.729Z,98572.78
2023-04-06T07:02:19.502Z,98583.28
2023-04-06T07:04:49.470Z,98581.91
2023-04-06T07:07:16.135Z,98581.22
2023-04-06T07:09:42.854Z,98579.09
2023-04-06T07:12:09.510Z,98580.69
2023-04-06T07:17:14.056Z,98588.88
2023-04-06T07:19:40.951Z,98585.22
2023-04-06T07:22:07.981Z,98590.28
2023-04-06T07:24:34.686Z,98589.09
2023-04-06T07:29:35.678Z,98587.31
2023-04-06T07:32:02.812Z,98587.81
2023-04-06T07:34:29.545Z,98595.31
2023-04-06T07:36:57.856Z,98582.88
2023-04-06T07:39:24.907Z,98595.47
2023-04-06T07:41:51.663Z,98589.44
2023-04-06T07:44:18.389Z,98594.00
2023-04-06T07:46:45.034Z,98597.16
2023-04-06T07:49:11.762Z,98588.34
2023-04-06T07:54:17.545Z,98580.50
2023-04-06T07:56:44.287Z,98572.50
2023-04-06T07:59:12.572Z,98579.88
2023-04-06T08:01:39.433Z,98577.63
2023-04-06T08:04:06.383Z,98578.25
2023-04-06T08:06:33.231Z,98580.13
2023-04-06T08:08:59.898Z,98579.41
2023-04-06T08:11:27.952Z,98573.91
2023-04-06T08:13:55.481Z,98573.50
2023-04-06T08:16:22.173Z,98583.28
2023-04-06T08:18:48.897Z,98582.63
2023-04-06T08:21:15.982Z,98585.69
2023-04-06T08:23:42.703Z,98575.56
2023-04-06T08:26:09.411Z,98582.81
2023-04-06T08:31:14.077Z,98583.56
2023-04-06T08:33:40.963Z,98584.47
2023-04-06T08:36:12.700Z,98587.75
2023-04-06T08:38:40.735Z,98584.16
2023-04-06T08:41:11.973Z,98581.78
2023-04-06T08:43:45.669Z,98581.88
2023-04-06T08:46:12.894Z,98584.22
2023-04-06T08:48:41.971Z,98580.31
2023-04-06T08:51:10.056Z,98587.84
2023-04-06T08:53:37.395Z,98580.47
2023-04-06T08:56:05.493Z,98574.22
2023-04-06T08:58:38.459Z,98574.53
2023-04-06T09:01:10.446Z,98576.72
2023-04-06T09:03:42.047Z,98556.03
2023-04-06T09:06:10.711Z,98568.34
2023-04-06T09:08:40.143Z,98570.25
2023-04-06T09:11:07.134Z,98563.88
2023-04-06T09:13:49.214Z,98560.31
2023-04-06T09:16:16.916Z,98551.91
2023-04-06T09:18:43.910Z,98549.16
2023-04-06T09:21:11.519Z,98549.03
2023-04-06T09:23:38.904Z,98552.25
2023-04-06T09:26:17.659Z,98548.69
2023-04-06T09:28:54.935Z,98551.22
2023-04-06T09:31:29.585Z,98551.06
2023-04-06T09:33:57.557Z,98544.41
2023-04-06T09:36:34.589Z,98545.84
2023-04-06T09:39:03.987Z,98550.47
2023-04-06T09:41:32.183Z,98553.59
2023-04-06T09:44:14.523Z,98545.44
2023-04-06T09:46:58.655Z,98537.84
2023-04-06T09:49:28.879Z,98533.28
2023-04-06T09:54:36.782Z,98539.19
2023-04-06T09:57:19.115Z,98539.44
2023-04-06T10:00:04.908Z,98529.94
2023-04-06T10:02:46.037Z,98534.00
2023-04-06T10:05:33.109Z,98529.69
2023-04-06T10:08:06.135Z,98528.94
2023-04-06T10:10:32.974Z,98535.97
2023-04-06T10:12:59.713Z,98535.56
2023-04-06T10:15:26.876Z,98530.09
2023-04-06T10:17:53.861Z,98533.25
2023-04-06T10:23:30.784Z,98526.16
2023-04-06T10:25:59.358Z,98526.56
2023-04-06T10:28:31.380Z,98528.13
2023-04-06T10:31:02.600Z,98528.09
2023-04-06T10:33:29.877Z,98528.81
2023-04-06T10:35:59.629Z,98527.59
2023-04-06T10:38:41.761Z,98517.50
2023-04-06T10:41:11.349Z,98520.53
2023-04-06T10:43:39.925Z,98516.31
2023-04-06T10:46:09.431Z,98514.63
2023-04-06T10:48:40.346Z,98514.00
2023-04-06T10:51:12.882Z,98508.00
2023-04-06T10:53:42.829Z,98505.19
2023-04-06T10:56:14.565Z,98504.25
2023-04-06T10:58:48.363Z,98511.53
2023-04-06T11:01:23.988Z,98510.38
2023-04-06T11:06:34.902Z,98508.50
2023-04-06T11:09:01.622Z,98502.47
2023-04-06T11:11:28.373Z,98501.69
2023-04-06T11:14:02.263Z,98504.41
2023-04-06T11:16:31.467Z,98504.09
2023-04-06T11:19:06.264Z,98496.06
2023-04-06T11:21:40.866Z,98502.59
2023-04-06T11:24:20.776Z,98490.59
2023-04-06T11:26:52.639Z,98486.53
2023-04-06T11:29:21.279Z,98480.03
2023-04-06T11:34:48.286Z,98474.84
2023-04-06T11:37:15.639Z,98463.69
2023-04-06T11:39:49.376Z,98468.00
2023-04-06T11:42:25.940Z,98460.94
2023-04-06T11:44:55.432Z,98460.03
2023-04-06T11:47:29.688Z,98459.72
2023-04-06T11:52:31.348Z,98455.84
2023-04-06T11:54:58.591Z,98453.47
2023-04-06T12:00:01.504Z,98450.38
2023-04-06T12:02:28.245Z,98448.28
2023-04-06T12:04:54.976Z,98451.41
2023-04-06T12:07:21.630Z,98442.72
2023-04-06T12:09:48.250Z,98454.56
2023-04-06T12:12:14.916Z,98455.56
2023-04-06T12:14:41.608Z,98446.56
2023-04-06T12:17:08.649Z,98441.59
2023-04-06T12:19:35.431Z,98436.69
2023-04-06T12:22:02.144Z,98435.72
2023-04-06T12:24:30.084Z,98427.03
2023-04-06T12:27:06.886Z,98431.25
2023-04-06T12:29:37.063Z,98436.25
2023-04-06T12:32:03.813Z,98426.06
2023-04-06T12:34:30.528Z,98424.34
2023-04-06T12:39:29.098Z,98417.13
2023-04-06T12:41:57.429Z,98418.66
2023-04-06T12:44:25.634Z,98422.47
2023-04-06T12:46:53.782Z,98416.03
2023-04-06T12:49:20.794Z,98418.75
2023-04-06T12:51:47.488Z,98410.84
2023-04-06T12:56:52.381Z,98407.72
2023-04-06T12:59:19.307Z,98407.38
2023-04-06T13:01:46.144Z,98407.72
2023-04-06T13:04:12.892Z,98410.03
2023-04-06T13:06:39.612Z,98405.56
2023-04-06T13:09:06.809Z,98411.38
2023-04-06T13:11:33.585Z,98403.91
2023-04-06T13:14:00.422Z,98397.94
2023-04-06T13:16:27.106Z,98392.56
2023-04-06T13:18:53.810Z,98388.78
2023-04-06T13:21:22.025Z,98386.91
2023-04-06T13:23:48.993Z,98387.56
2023-04-06T13:26:16.400Z,98382.25
2023-04-06T13:28:43.220Z,98385.28
2023-04-06T13:31:11.039Z,98383.22
2023-04-06T13:33:38.287Z,98383.47
2023-04-06T13:36:05.804Z,98377.22
2023-04-06T13:38:32.915Z,98379.41
2023-04-06T13:40:59.750Z,98381.91
2023-04-06T13:43:27.901Z,98377.19
2023-04-06T13:45:56.689Z,98371.63
2023-04-06T13:48:23.801Z,98374.78
2023-04-06T13:50:50.836Z,98371.25
2023-04-06T13:53:17.661Z,98370.19
2023-04-06T13:55:45.003Z,98375.31
2023-04-06T13:58:11.728Z,98369.41
2023-04-06T14:00:39.188Z,98368.94
2023-04-06T14:05:44.146Z,98371.03
2023-04-06T14:10:43.519Z,98368.69
2023-04-06T14:13:10.350Z,98365.53
2023-04-06T14:15:37.107Z,98362.00
2023-04-06T14:18:04.014Z,98366.31
2023-04-06T14:23:13.161Z,98363.16
2023-04-06T14:25:39.811Z,98356.91
2023-04-06T14:28:06.448Z,98366.34
2023-04-06T14:30:33.225Z,98362.00
2023-04-06T14:33:00.119Z,98360.41
2023-04-06T14:35:29.381Z,98360.34
2023-04-06T14:37:58.123Z,98354.44
2023-04-06T14:40:25.994Z,98344.22
2023-04-06T14:42:52.953Z,98349.31
2023-04-06T14:45:21.232Z,98346.97
2023-04-06T14:47:47.899Z,98343.06
2023-04-06T14:50:14.585Z,98348.22
2023-04-06T14:52:41.309Z,98346.69
2023-04-06T14:55:08.534Z,98342.75
2023-04-06T14:57:35.281Z,98341.97
2023-04-06T15:00:01.966Z,98341.16
2023-04-06T15:02:29.025Z,98340.75
2023-04-06T15:04:55.854Z,98339.97
2023-04-06T15:07:22.455Z,98337.56
2023-04-06T15:09:49.298Z,98338.00
2023-04-06T15:12:16.128Z,98339.59
2023-04-06T15:14:42.767Z,98344.34
2023-04-06T15:17:09.417Z,98336.09
2023-04-06T15:19:36.189Z,98340.41
2023-04-06T15:24:34.069Z,98333.34
2023-04-06T15:27:01.016Z,98331.81
2023-04-06T15:29:27.773Z,98326.31
2023-04-06T15:31:54.681Z,98329.81
2023-04-06T15:34:21.325Z,98325.88
2023-04-06T15:36:48.186Z,98334.16
2023-04-06T15:39:14.943Z,98326.69
2023-04-06T15:41:41.599Z,98328.25
2023-04-06T15:44:08.358Z,98321.59
2023-04-06T15:46:35.084Z,98325.09
2023-04-06T15:49:01.892Z,98331.41
2023-04-06T15:51:30.386Z,98336.50
2023-04-06T15:53:58.827Z,98328.22
2023-04-06T15:56:25.610Z,98328.63
2023-04-06T15:58:52.372Z,98326.28
2023-04-06T16:01:19.469Z,98334.91
2023-04-06T16:03:46.857Z,98324.72
2023-04-06T16:06:13.718Z,98327.84
2023-04-06T16:08:41.014Z,98326.25
2023-04-06T16:11:08.025Z,98326.25
2023-04-06T16:13:34.978Z,98327.81
2023-04-06T16:16:01.740Z,98324.28
2023-04-06T16:18:28.523Z,98330.56
2023-04-06T16:20:55.212Z,98331.31
2023-04-06T16:23:22.273Z,98327.81
2023-04-06T16:25:50.619Z,98324.22
2023-04-06T16:28:17.890Z,98326.97
2023-04-06T16:30:45.870Z,98325.41
2023-04-06T16:33:13.969Z,98325.78
2023-04-06T16:35:45.584Z,98341.03
2023-04-06T16:40:46.671Z,98334.66
2023-04-06T16:43:14.300Z,98336.28
2023-04-06T16:45:41.518Z,98342.94
2023-04-06T16:48:08.804Z,98333.13
2023-04-06T16:50:36.665Z,98341.03
2023-04-06T16:53:03.450Z,98333.16
2023-04-06T16:55:30.141Z,98330.81
2023-04-06T17:00:30.855Z,98328.56
2023-04-06T17:02:57.901Z,98329.63
2023-04-06T17:05:26.888Z,98330.41
2023-04-06T17:07:53.916Z,98337.69
2023-04-06T17:10:28.688Z,98336.84
2023-04-06T17:13:00.519Z,98334.41
2023-04-06T17:15:28.653Z,98336.38
2023-04-06T17:17:55.537Z,98331.19
2023-04-06T17:20:22.633Z,98339.75
2023-04-06T17:22:49.803Z,98343.25
2023-04-06T17:27:52.123Z,98345.22
2023-04-06T17:35:23.147Z,98347.06
2023-04-06T17:37:50.023Z,98341.56
2023-04-06T17:42:48.053Z,98344.22
2023-04-06T17:45:14.734Z,98348.88
2023-04-06T17:47:41.544Z,98350.66
2023-04-06T17:50:08.388Z,98356.56
2023-04-06T17:52:35.105Z,98354.56
2023-04-06T17:55:01.793Z,98357.91
2023-04-06T17:57:28.501Z,98355.16
2023-04-06T17:59:55.807Z,98366.69
2023-04-06T18:02:22.842Z,98359.81
2023-04-06T18:04:58.808Z,98369.66
2023-04-06T18:07:25.660Z,98362.88
2023-04-06T18:09:52.346Z,98364.16
2023-04-06T18:12:19.058Z,98371.78
2023-04-06T18:14:46.099Z,98366.50
2023-04-06T18:17:13.176Z,98373.78
2023-04-06T18:19:39.804Z,98386.25
2023-04-06T18:22:06.504Z,98373.31
2023-04-06T18:24:42.221Z,98383.50
2023-04-06T18:27:10.837Z,98385.09
2023-04-06T18:29:37.537Z,98393.31
2023-04-06T18:32:05.743Z,98398.78
2023-04-06T18:34:33.066Z,98399.06
2023-04-06T18:37:01.766Z,98399.78
2023-04-06T18:39:28.871Z,98407.22
2023-04-06T18:41:56.103Z,98396.63
2023-04-06T18:44:22.955Z,98403.09
2023-04-06T18:46:51.384Z,98405.38
2023-04-06T18:49:20.144Z,98399.88
2023-04-06T18:54:24.549Z,98400.53
2023-04-06T18:56:51.509Z,98401.34
2023-04-06T18:59:19.437Z,98404.25
2023-04-06T19:01:51.201Z,98409.84
2023-04-06T19:04:18.212Z,98419.09
2023-04-06T19:06:45.047Z,98414.81
2023-04-06T19:09:11.703Z,98418.78
2023-04-06T19:11:38.460Z,98424.13
2023-04-06T19:14:05.698Z,98422.00
2023-04-06T19:16:32.359Z,98427.91
2023-04-06T19:19:00.196Z,98417.75
2023-04-06T19:21:27.691Z,98424.41
2023-04-06T19:23:55.810Z,98426.31
2023-04-06T19:26:24.014Z,98429.25
2023-04-06T19:28:51.054Z,98434.22
2023-04-06T19:33:56.482Z,98434.16
2023-04-06T19:36:23.163Z,98428.81
2023-04-06T19:38:49.936Z,98423.72
2023-04-06T19:43:47.864Z,98437.38
2023-04-06T19:46:15.700Z,98432.69
2023-04-06T19:51:13.799Z,98437.31
2023-04-06T19:53:40.672Z,98430.50
2023-04-06T19:56:07.424Z,98428.81
2023-04-06T19:58:34.082Z,98436.44
2023-04-06T20:01:00.856Z,98438.31
2023-04-06T20:03:27.712Z,98431.38
2023-04-06T20:05:54.451Z,98435.66
2023-04-06T20:08:22.729Z,98446.00
2023-04-06T20:10:49.739Z,98432.44
2023-04-06T20:13:16.663Z,98437.66
2023-04-06T20:15:43.353Z,98436.00
2023-04-06T20:18:10.084Z,98441.47
2023-04-06T20:20:36.777Z,98440.66
2023-04-06T20:23:03.427Z,98438.84
2023-04-06T20:25:31.608Z,98434.75
2023-04-06T20:27:58.238Z,98440.53
2023-04-06T20:30:24.895Z,98432.53
2023-04-06T20:32:51.612Z,98434.31
2023-04-06T20:35:18.411Z,98438.41
2023-04-06T20:37:45.067Z,98445.09
2023-04-06T20:40:13.123Z,98442.25
2023-04-06T20:45:11.712Z,98438.56
2023-04-06T20:47:39.184Z,98443.25
2023-04-06T20:50:06.998Z,98446.28
2023-04-06T20:52:34.066Z,98437.13
2023-04-06T20:55:01.673Z,98430.94
2023-04-06T20:57:28.427Z,98439.19
2023-04-06T20:59:55.120Z,98439.56
2023-04-06T21:02:22.009Z,98435.97
2023-04-06T21:04:48.924Z,98439.88
2023-04-06T21:07:15.876Z,98443.75
2023-04-06T21:09:42.603Z,98444.06
2023-04-06T21:12:09.339Z,98437.31
2023-04-06T21:14:36.801Z,98443.75
2023-04-06T21:17:04.352Z,98442.78
2023-04-06T21:22:02.618Z,98438.72
2023-04-06T21:24:29.400Z,98439.94
2023-04-06T21:26:56.167Z,98437.63
2023-04-06T21:29:22.846Z,98431.69
2023-04-06T21:31:49.612Z,98438.13
2023-04-06T21:34:16.695Z,98440.84
2023-04-06T21:36:43.692Z,98446.78
2023-04-06T21:39:10.497Z,98437.69
2023-04-06T21:41:37.444Z,98440.84
2023-04-06T21:44:04.569Z,98436.06
2023-04-06T21:46:31.549Z,98444.06
2023-04-06T21:48:58.571Z,98446.88
2023-04-06T21:51:25.220Z,98448.31
2023-04-06T21:53:52.975Z,98447.97
2023-04-06T21:56:23.745Z,98456.25
2023-04-06T21:58:50.806Z,98454.88
2023-04-06T22:01:18.072Z,98452.09
2023-04-06T22:03:46.324Z,98450.66
2023-04-06T22:06:13.198Z,98450.78
2023-04-06T22:08:39.918Z,98447.56
2023-04-06T22:11:11.590Z,98446.28
2023-04-06T22:13:38.856Z,98451.66
2023-04-06T22:16:06.164Z,98452.28
2023-04-06T22:18:34.216Z,98452.78
2023-04-06T22:21:03.543Z,98453.44
2023-04-06T22:23:32.359Z,98446.72
2023-04-06T22:25:59.221Z,98450.50
2023-04-06T22:28:26.563Z,98442.22
2023-04-06T22:30:53.430Z,98447.16
2023-04-06T22:35:53.554Z,98441.25
2023-04-06T22:38:20.143Z,98437.84
2023-04-06T22:40:46.989Z,98427.63
2023-04-06T22:43:13.589Z,98432.22
2023-04-06T22:45:40.198Z,98424.31
2023-04-06T22:48:07.022Z,98427.03
2023-04-06T22:50:33.786Z,98427.59
2023-04-06T22:53:00.871Z,98425.34
2023-04-06T22:55:27.673Z,98428.75
2023-04-06T22:57:54.496Z,98420.66
2023-04-06T23:00:21.300Z,98422.28
2023-04-06T23:05:22.396Z,98427.09
2023-04-06T23:07:49.066Z,98421.91
2023-04-06T23:10:15.766Z,98423.50
2023-04-06T23:12:42.448Z,98421.19
2023-04-06T23:15:10.029Z,98418.38
2023-04-06T23:17:36.797Z,98420.16
2023-04-06T23:20:03.629Z,98414.91
2023-04-06T23:25:01.883Z,98409.81
2023-04-06T23:27:28.516Z,98403.69
2023-04-06T23:29:55.155Z,98396.91
2023-04-06T23:32:21.887Z,98398.75
2023-04-06T23:34:48.524Z,98398.75
2023-04-06T23:37:15.361Z,98390.59
2023-04-06T23:39:43.026Z,98390.16
2023-04-06T23:42:09.766Z,98385.88
2023-04-06T23:44:36.578Z,98382.50
2023-04-06T23:47:03.228Z,98383.22
2023-04-06T23:49:29.998Z,98377.06
2023-04-06T23:51:56.678Z,98372.56
2023-04-06T23:54:23.316Z,98370.75
2023-04-06T23:56:52.110Z,98360.19
2023-04-06T23:59:18.909Z,98363.38
